Terminal Aerodrome Forecast
Issued by NWS Sioux Falls, SD

Home | Current Version | Previous Version | Text Only | Print | Product List | Glossary On
Versions: 1 2 3 4 5 6 7 8 9 10 11 12 13 14 15
000
FTUS43 KFSD 172346
TAFHON
TAF
KHON 172346Z 1800/1824 VRB05KT P6SM FEW250
     FM180200 14006KT P6SM BKN200
     FM180500 12006KT P6SM VCSH BKN100
     FM180900 14006KT P6SM SCT200
     FM181400 23004KT P6SM SCT150=

USA.gov is the U.S. government's official web portal to all federal, state and local government web resources and services.